Time;durP1;ratioP1;P1;durP2;ratioP2;P2;SDS_P1;SDS_P2;PMS_P1;PMS_P2;Temp;Humidity;BMP_temperature;BMP_pressure;BME280_temperature;BME280_humidity;BME280_pressure;Samples;Min_cycle;Max_cycle;Signal;HPM_P1;HPM_P2
2023/12/09 00:02:15;;;;;;;50.10;27.80;;;;;;;1.94;69.08;100189.28;4956736;28;97208;-74
2023/12/09 00:04:41;;;;;;;53.37;28.03;;;;;;;2.09;68.59;100186.66;4956975;28;100910;-74
2023/12/09 00:07:06;;;;;;;52.07;29.90;;;;;;;2.17;68.62;100182.34;4973272;28;97431;-74
2023/12/09 00:09:32;;;;;;;49.20;27.50;;;;;;;2.17;68.40;100179.75;4973093;28;96716;-74
2023/12/09 00:11:57;;;;;;;53.40;28.93;;;;;;;2.26;68.21;100186.63;4962349;28;96819;-74
2023/12/09 00:14:23;;;;;;;51.90;29.47;;;;;;;2.16;68.03;100177.19;4973278;28;97382;-74
2023/12/09 00:16:49;;;;;;;49.63;28.60;;;;;;;2.30;68.03;100184.88;4952069;28;97829;-74
2023/12/09 00:19:14;;;;;;;49.97;28.17;;;;;;;2.34;67.56;100184.88;4956454;28;96915;-74
2023/12/09 00:21:40;;;;;;;48.87;27.20;;;;;;;2.41;67.76;100180.53;4956396;28;96827;-74
2023/12/09 00:24:05;;;;;;;52.23;28.33;;;;;;;2.40;67.87;100176.25;4972634;28;97965;-74
2023/12/09 00:26:31;;;;;;;56.30;31.43;;;;;;;2.52;67.94;100178.78;4973421;28;97865;-74
2023/12/09 00:28:56;;;;;;;85.87;48.30;;;;;;;2.45;68.19;100171.91;4972677;28;97259;-74
2023/12/09 00:31:22;;;;;;;85.93;51.77;;;;;;;2.59;68.10;100185.69;4955871;28;96964;-74
2023/12/09 00:33:47;;;;;;;51.20;29.27;;;;;;;2.59;68.26;100184.78;4962652;28;97642;-74
2023/12/09 00:36:13;;;;;;;48.97;28.40;;;;;;;2.63;68.30;100187.38;4955458;28;101295;-74
2023/12/09 00:38:39;;;;;;;57.53;31.20;;;;;;;2.61;68.29;100183.06;4973080;28;96841;-74
2023/12/09 00:41:05;;;;;;;49.33;27.63;;;;;;;2.60;68.32;100187.41;4956336;28;97271;-74
2023/12/09 00:43:30;;;;;;;51.90;28.50;;;;;;;2.61;68.49;100180.47;4972894;28;97567;-74
2023/12/09 00:45:56;;;;;;;47.37;27.43;;;;;;;2.67;68.40;100189.09;4955298;28;98689;-74
2023/12/09 00:48:22;;;;;;;54.73;29.23;;;;;;;2.64;68.49;100178.72;4971798;28;96755;-74
2023/12/09 00:50:47;;;;;;;50.17;30.13;;;;;;;2.60;68.36;100183.94;4954172;28;96811;-74
2023/12/09 00:53:13;;;;;;;53.53;30.33;;;;;;;2.46;68.64;100191.75;4956261;28;98603;-74
2023/12/09 00:55:38;;;;;;;50.33;28.10;;;;;;;2.58;68.94;100185.69;4955571;28;97818;-74
2023/12/09 00:58:04;;;;;;;49.20;28.07;;;;;;;2.63;68.93;100191.72;4973243;28;96734;-74
2023/12/09 01:00:29;;;;;;;52.83;29.63;;;;;;;2.68;68.69;100195.16;4955632;28;97224;-77
2023/12/09 01:02:55;;;;;;;58.10;30.50;;;;;;;2.64;68.45;100191.69;4955564;28;101044;-74
2023/12/09 01:05:20;;;;;;;50.53;30.17;;;;;;;2.69;68.97;100194.28;4945854;28;99750;-74
2023/12/09 01:07:46;;;;;;;51.57;29.30;;;;;;;2.64;68.69;100189.09;4987405;28;97494;-74
2023/12/09 01:10:11;;;;;;;63.23;31.40;;;;;;;2.74;68.45;100202.06;4989874;28;96858;-74
2023/12/09 01:12:37;;;;;;;53.53;30.77;;;;;;;2.63;69.44;100189.13;4972633;28;97433;-74
2023/12/09 01:15:03;;;;;;;52.80;30.30;;;;;;;2.61;69.01;100185.66;4974366;28;97503;-74
2023/12/09 01:17:28;;;;;;;54.63;30.93;;;;;;;2.64;68.91;100185.66;4972957;28;96749;-74
2023/12/09 01:19:54;;;;;;;60.43;32.13;;;;;;;2.71;68.95;100197.75;4972471;28;97598;-74
2023/12/09 01:22:20;;;;;;;57.27;30.37;;;;;;;2.57;69.30;100196.94;4971754;28;97597;-74
2023/12/09 01:24:46;;;;;;;59.47;31.23;;;;;;;2.72;69.25;100212.41;4971867;28;101643;-74
2023/12/09 01:27:11;;;;;;;56.10;29.83;;;;;;;2.69;69.20;100205.50;4988839;28;96799;-74
2023/12/09 01:29:37;;;;;;;58.40;30.37;;;;;;;2.67;69.37;100198.59;4957939;28;96830;-74
2023/12/09 01:32:03;;;;;;;54.10;30.30;;;;;;;2.63;69.45;100196.91;4971673;28;101274;-74
2023/12/09 01:34:28;;;;;;;57.20;30.97;;;;;;;2.58;69.82;100214.19;4961338;28;101367;-74
2023/12/09 01:36:54;;;;;;;54.13;30.60;;;;;;;2.56;70.14;100195.19;4987595;28;96738;-74
2023/12/09 01:39:20;;;;;;;51.53;29.77;;;;;;;2.60;69.71;100202.94;4958611;28;96863;-74
2023/12/09 01:41:45;;;;;;;55.43;29.37;;;;;;;2.70;69.72;100209.81;4971396;28;97526;-74
2023/12/09 01:44:11;;;;;;;57.97;31.27;;;;;;;2.72;69.77;100202.03;4960303;28;101510;-74
2023/12/09 01:46:37;;;;;;;52.57;29.60;;;;;;;2.74;69.61;100199.47;4952666;28;97096;-74
2023/12/09 01:49:02;;;;;;;55.53;28.93;;;;;;;2.55;70.33;100189.13;4983288;28;96794;-74
2023/12/09 01:51:28;;;;;;;48.07;28.13;;;;;;;2.58;70.71;100193.44;4973110;28;98363;-74
2023/12/09 01:53:54;;;;;;;49.70;28.50;;;;;;;2.63;70.21;100192.56;4956253;28;97460;-74
2023/12/09 01:56:20;;;;;;;52.33;28.63;;;;;;;2.68;70.46;100198.59;4971168;28;97256;-74
2023/12/09 01:58:46;;;;;;;54.37;29.10;;;;;;;2.69;70.50;100194.28;4972134;28;97154;-74
2023/12/09 02:01:13;;;;;;;50.33;27.93;;;;;;;2.60;70.99;100186.53;4972186;28;97351;-74
2023/12/09 02:03:38;;;;;;;40.83;23.40;;;;;;;2.55;71.22;100194.31;4971552;28;97699;-74
2023/12/09 02:06:04;;;;;;;39.53;21.60;;;;;;;2.38;72.04;100184.00;4970936;28;97304;-74
2023/12/09 02:08:29;;;;;;;30.47;18.97;;;;;;;2.28;72.62;100184.91;4972276;28;96830;-74
2023/12/09 02:11:19;;;;;;;27.43;17.37;;;;;;;2.12;73.61;100181.47;4954586;28;97814;-74
2023/12/09 02:13:59;;;;;;;26.10;15.30;;;;;;;2.15;74.02;100204.81;4954954;28;97775;-74
2023/12/09 02:16:34;;;;;;;23.30;15.27;;;;;;;2.12;74.50;100203.91;4945699;28;97228;-74
2023/12/09 02:19:00;;;;;;;24.50;15.23;;;;;;;2.17;74.85;100204.78;4971569;28;96801;-74
2023/12/09 02:21:26;;;;;;;23.57;14.77;;;;;;;2.06;75.54;100199.63;4971124;28;97503;-74
2023/12/09 02:23:52;;;;;;;23.07;14.90;;;;;;;1.97;75.32;100203.06;4954751;28;97906;-74
2023/12/09 02:26:21;;;;;;;21.23;14.57;;;;;;;2.02;75.67;100201.34;4970317;28;96701;-74
2023/12/09 02:28:53;;;;;;;24.40;15.03;;;;;;;2.04;75.72;100203.97;4938750;28;96877;-74
2023/12/09 02:31:30;;;;;;;24.17;14.55;;;;;;;1.94;75.79;100186.69;4954077;28;101557;-74
2023/12/09 02:33:56;;;;;;;23.20;14.80;;;;;;;1.91;76.06;100187.56;4945947;28;97582;-74
2023/12/09 02:36:22;;;;;;;23.93;15.00;;;;;;;1.93;76.21;100196.19;4970470;28;96774;-74
2023/12/09 02:38:48;;;;;;;20.73;14.53;;;;;;;1.92;76.15;100196.19;4952108;28;96925;-74
2023/12/09 02:41:15;;;;;;;23.07;14.10;;;;;;;1.91;76.55;100197.06;4965271;28;98582;-74
2023/12/09 02:43:41;;;;;;;20.47;13.67;;;;;;;1.86;76.87;100196.19;4954706;28;101176;-74
2023/12/09 02:46:11;;;;;;;25.77;17.37;;;;;;;1.89;76.74;100186.72;4952690;28;97207;-74
2023/12/09 02:48:37;;;;;;;26.20;16.07;;;;;;;1.85;77.15;100189.28;4970803;28;97024;-74
2023/12/09 02:51:03;;;;;;;25.40;16.97;;;;;;;1.85;77.38;100189.28;4969609;28;100529;-74
2023/12/09 02:53:28;;;;;;;25.50;16.30;;;;;;;1.90;76.90;100198.78;4971887;28;97529;-75
2023/12/09 02:55:54;;;;;;;21.53;14.03;;;;;;;1.93;77.41;100203.97;4950986;28;97361;-74
2023/12/09 02:58:19;;;;;;;25.00;16.43;;;;;;;1.89;77.35;100201.34;4978517;28;97108;-74
2023/12/09 03:00:45;;;;;;;23.30;14.90;;;;;;;1.90;77.35;100198.78;4977609;28;98154;-74
2023/12/09 03:03:10;;;;;;;23.80;14.07;;;;;;;1.92;77.23;100202.25;4982484;28;97500;-74
2023/12/09 03:05:36;;;;;;;23.43;14.20;;;;;;;1.80;77.35;100186.69;4962006;28;97276;-74
2023/12/09 03:08:01;;;;;;;28.07;15.80;;;;;;;1.88;77.60;100197.06;4981708;28;97240;-74
2023/12/09 03:10:26;;;;;;;24.90;15.30;;;;;;;1.93;76.96;100203.97;4960770;28;101341;-74
2023/12/09 03:12:52;;;;;;;22.53;14.43;;;;;;;1.89;77.28;100202.25;4980463;28;97563;-74
2023/12/09 03:15:17;;;;;;;21.50;14.17;;;;;;;1.92;77.29;100207.41;4961765;28;96769;-74
2023/12/09 03:17:43;;;;;;;25.53;15.83;;;;;;;1.91;77.44;100205.66;4978319;28;96768;-74
2023/12/09 03:20:09;;;;;;;23.93;14.87;;;;;;;1.81;77.51;100204.81;4976728;28;97921;-74
2023/12/09 03:22:34;;;;;;;23.33;16.13;;;;;;;1.83;77.83;100202.22;4961359;28;97716;-74
2023/12/09 03:25:00;;;;;;;23.33;15.13;;;;;;;1.83;77.75;100198.78;4959520;28;96780;-74
2023/12/09 03:27:25;;;;;;;24.53;15.47;;;;;;;1.82;78.08;100197.91;4963698;28;97254;-74
2023/12/09 03:29:51;;;;;;;24.60;15.43;;;;;;;1.75;78.27;100198.78;4944125;28;100234;-74
2023/12/09 03:32:16;;;;;;;24.70;15.13;;;;;;;1.78;77.92;100180.69;4994673;28;97940;-74
2023/12/09 03:34:45;;;;;;;24.93;15.53;;;;;;;1.85;78.04;100191.88;4982221;28;96841;-74
2023/12/09 03:37:11;;;;;;;23.57;14.27;;;;;;;1.80;78.19;100185.00;4964110;28;97922;-74
2023/12/09 03:39:36;;;;;;;24.67;15.23;;;;;;;1.90;78.15;100192.75;4962330;28;97447;-74
2023/12/09 03:42:02;;;;;;;24.50;15.03;;;;;;;1.90;78.26;100187.56;4942857;28;101082;-74
2023/12/09 03:44:27;;;;;;;23.27;15.40;;;;;;;1.86;77.82;100193.59;4979335;28;96887;-74
2023/12/09 03:46:52;;;;;;;23.07;14.83;;;;;;;1.99;77.42;100191.00;4977605;28;97390;-74
2023/12/09 03:49:18;;;;;;;22.30;13.83;;;;;;;1.89;77.53;100171.19;4975821;28;97495;-75
2023/12/09 03:51:43;;;;;;;22.73;14.97;;;;;;;2.01;77.07;100194.47;4979615;28;97417;-74
2023/12/09 03:54:09;;;;;;;23.53;15.13;;;;;;;2.02;77.22;100198.75;4961194;28;96867;-74
2023/12/09 03:56:35;;;;;;;22.63;14.33;;;;;;;2.06;76.97;100202.19;4980814;28;96787;-74
2023/12/09 03:59:00;;;;;;;21.77;13.00;;;;;;;2.03;77.27;100189.25;4946378;28;100861;-74
2023/12/09 04:01:25;;;;;;;22.40;14.30;;;;;;;1.97;77.11;100176.31;4979375;28;98703;-74
2023/12/09 04:03:51;;;;;;;21.33;13.43;;;;;;;1.95;77.14;100181.53;4979976;28;97251;-74
2023/12/09 04:06:17;;;;;;;20.47;12.97;;;;;;;1.91;77.30;100178.94;4975228;28;96812;-74
2023/12/09 04:08:43;;;;;;;18.93;12.40;;;;;;;1.93;77.69;100188.41;4981261;28;97353;-74
2023/12/09 04:11:09;;;;;;;19.77;12.23;;;;;;;1.80;77.63;100176.34;4979753;28;97805;-74
2023/12/09 04:13:34;;;;;;;18.70;11.80;;;;;;;1.75;78.30;100180.69;4979074;28;96795;-74
2023/12/09 04:16:00;;;;;;;19.00;13.50;;;;;;;1.76;78.21;100157.38;4977713;28;97200;-74
2023/12/09 04:18:26;;;;;;;23.50;12.90;;;;;;;1.91;77.55;100164.25;4956238;28;101665;-74
2023/12/09 04:20:51;;;;;;;16.77;11.43;;;;;;;2.04;77.52;100180.66;4980056;28;98475;-74
2023/12/09 04:23:18;;;;;;;18.73;11.60;;;;;;;2.01;77.78;100180.66;4979352;28;96796;-74
2023/12/09 04:25:44;;;;;;;21.27;13.67;;;;;;;2.05;77.09;100179.78;4962024;28;96986;-74
2023/12/09 04:28:11;;;;;;;17.20;11.80;;;;;;;2.05;77.34;100177.19;4978622;28;97425;-74
2023/12/09 04:30:37;;;;;;;17.90;12.37;;;;;;;2.11;76.85;100181.50;4944470;28;99381;-74
2023/12/09 04:33:03;;;;;;;17.90;12.00;;;;;;;2.17;76.92;100179.75;4963703;28;96794;-74
2023/12/09 04:35:29;;;;;;;23.23;13.10;;;;;;;2.19;76.73;100184.94;4984065;28;96849;-75
2023/12/09 04:37:55;;;;;;;20.17;11.97;;;;;;;2.12;77.25;100184.06;4965499;28;101057;-74
2023/12/09 04:40:20;;;;;;;19.67;11.70;;;;;;;2.09;77.29;100181.47;4981634;28;98039;-73
2023/12/09 04:42:46;;;;;;;21.03;13.10;;;;;;;2.02;77.44;100187.53;4948169;28;97183;-75
2023/12/09 04:45:12;;;;;;;18.97;11.83;;;;;;;2.11;77.21;100178.91;4980028;28;97530;-75
2023/12/09 04:47:38;;;;;;;17.30;11.83;;;;;;;2.08;77.04;100182.34;4945930;28;101297;-74
2023/12/09 04:50:05;;;;;;;18.23;12.47;;;;;;;2.07;77.27;100179.78;4980139;28;98538;-75
2023/12/09 04:52:30;;;;;;;20.17;12.93;;;;;;;2.11;77.18;100182.34;4960739;28;96777;-74
2023/12/09 04:54:56;;;;;;;17.97;12.73;;;;;;;2.12;77.24;100184.06;4977114;28;96749;-73
2023/12/09 04:57:22;;;;;;;20.17;12.63;;;;;;;1.98;77.41;100163.41;4961747;28;101102;-73
2023/12/09 04:59:47;;;;;;;17.73;11.37;;;;;;;2.06;77.35;100180.63;4965938;28;101061;-75
2023/12/09 05:02:13;;;;;;;20.13;13.97;;;;;;;1.99;77.79;100182.38;4965535;28;97052;-75
2023/12/09 05:04:38;;;;;;;16.30;11.97;;;;;;;2.01;77.64;100183.25;4948749;28;96928;-74
2023/12/09 05:07:04;;;;;;;16.47;11.30;;;;;;;2.09;77.45;100183.22;4962333;28;97625;-73
2023/12/09 05:09:29;;;;;;;16.13;11.93;;;;;;;2.13;77.25;100179.78;4944767;28;101476;-73
2023/12/09 05:11:55;;;;;;;22.13;11.83;;;;;;;2.09;77.69;100186.66;4949858;28;96699;-73
2023/12/09 05:14:20;;;;;;;17.80;11.40;;;;;;;2.15;77.53;100176.31;4965915;28;96811;-72
2023/12/09 05:16:46;;;;;;;18.60;11.57;;;;;;;2.23;77.36;100174.53;4946846;28;100174;-75
2023/12/09 05:19:12;;;;;;;17.63;11.30;;;;;;;2.25;76.80;100174.56;4963588;28;99812;-74
2023/12/09 05:21:37;;;;;;;16.97;12.43;;;;;;;2.27;77.13;100180.59;4965875;28;97931;-74
2023/12/09 05:24:04;;;;;;;18.60;11.47;;;;;;;2.29;77.14;100184.03;4964907;28;96868;-74
2023/12/09 05:26:30;;;;;;;16.67;11.33;;;;;;;2.31;76.85;100177.13;4960846;28;101293;-75
2023/12/09 05:28:56;;;;;;;19.10;11.40;;;;;;;2.30;76.79;100172.81;4964260;28;100749;-74
2023/12/09 05:31:22;;;;;;;16.67;11.10;;;;;;;2.28;76.98;100178.88;4962554;28;96774;-74
2023/12/09 05:33:48;;;;;;;20.80;12.47;;;;;;;2.27;77.25;100175.44;4948107;28;97512;-75
2023/12/09 05:36:13;;;;;;;17.80;10.70;;;;;;;2.25;77.08;100184.91;4955446;28;100236;-75
2023/12/09 05:38:40;;;;;;;15.80;10.80;;;;;;;2.30;76.51;100183.19;4952176;28;101249;-75
2023/12/09 05:41:06;;;;;;;16.47;10.77;;;;;;;2.20;76.95;100177.16;4938147;28;97077;-75
2023/12/09 05:43:31;;;;;;;18.20;11.50;;;;;;;2.05;76.88;100159.06;4951984;28;96845;-74
2023/12/09 05:45:57;;;;;;;18.20;10.97;;;;;;;2.14;77.54;100177.16;4964686;28;101634;-75
2023/12/09 05:48:22;;;;;;;15.40;10.63;;;;;;;2.15;76.92;100185.78;4954806;28;98873;-75
2023/12/09 05:50:48;;;;;;;17.23;11.40;;;;;;;2.17;77.40;100190.09;4952483;28;96885;-75
2023/12/09 05:53:13;;;;;;;18.10;12.10;;;;;;;2.09;77.61;100170.25;4955246;28;97032;-75
2023/12/09 05:55:39;;;;;;;15.70;11.30;;;;;;;2.24;77.07;100184.06;4951212;28;97808;-74
2023/12/09 05:58:05;;;;;;;18.53;11.70;;;;;;;2.15;77.09;100184.09;4950147;28;97839;-75
2023/12/09 06:00:30;;;;;;;17.03;11.37;;;;;;;2.20;77.29;100179.72;4965285;28;97149;-73
2023/12/09 06:02:56;;;;;;;21.93;11.63;;;;;;;2.18;76.88;100163.38;4954852;28;98035;-73
2023/12/09 06:05:21;;;;;;;18.50;11.97;;;;;;;2.20;77.08;100174.56;4970208;28;97589;-73
2023/12/09 06:07:47;;;;;;;18.47;11.70;;;;;;;2.29;76.82;100176.25;4951183;28;101092;-73
2023/12/09 06:10:12;;;;;;;16.77;10.27;;;;;;;2.33;76.93;100179.69;4952772;28;97041;-73
2023/12/09 06:12:38;;;;;;;20.73;11.70;;;;;;;2.42;76.81;100179.69;4951764;28;96894;-73
2023/12/09 06:15:05;;;;;;;17.13;11.97;;;;;;;2.40;76.28;100176.25;4951261;28;101097;-73
2023/12/09 06:17:30;;;;;;;18.40;12.27;;;;;;;2.43;76.21;100187.44;4950850;28;101483;-73
2023/12/09 06:19:56;;;;;;;17.37;11.43;;;;;;;2.48;76.30;100183.13;4966684;28;97063;-73
2023/12/09 06:22:21;;;;;;;19.13;11.77;;;;;;;2.54;76.14;100187.44;4938190;28;96817;-73
2023/12/09 06:24:47;;;;;;;21.13;12.60;;;;;;;2.55;75.58;100183.97;4954706;28;100837;-73
2023/12/09 06:27:13;;;;;;;21.23;13.20;;;;;;;2.57;75.80;100186.56;4937472;28;101638;-73
2023/12/09 06:29:38;;;;;;;16.47;11.67;;;;;;;2.62;75.61;100182.22;4954101;28;96849;-73
2023/12/09 06:32:05;;;;;;;22.93;12.23;;;;;;;2.55;75.56;100175.31;4970739;28;97211;-73
2023/12/09 06:34:30;;;;;;;19.33;11.57;;;;;;;2.74;75.31;100189.94;4938284;28;101636;-73
2023/12/09 06:36:56;;;;;;;22.90;13.27;;;;;;;2.75;74.94;100196.00;4958067;28;100790;-73
2023/12/09 06:39:21;;;;;;;22.53;13.10;;;;;;;2.76;74.52;100185.59;4955379;28;96758;-73
2023/12/09 06:41:48;;;;;;;25.40;13.10;;;;;;;2.82;74.82;100198.56;4954572;28;97203;-73
2023/12/09 06:44:14;;;;;;;21.13;13.13;;;;;;;2.77;74.54;100195.13;4965674;28;101609;-73
2023/12/09 06:46:40;;;;;;;21.93;13.07;;;;;;;2.76;74.69;100208.06;4970510;28;97231;-73
2023/12/09 06:49:06;;;;;;;21.87;14.80;;;;;;;2.71;74.81;100198.59;4937942;28;97085;-73
2023/12/09 06:51:31;;;;;;;21.93;12.53;;;;;;;2.65;74.65;100190.00;4970275;28;96901;-73
2023/12/09 06:53:57;;;;;;;20.33;14.33;;;;;;;2.69;74.65;100199.47;4968557;28;101520;-73
2023/12/09 06:56:23;;;;;;;26.77;14.60;;;;;;;2.79;74.70;100201.13;4963449;28;98052;-73
2023/12/09 06:58:49;;;;;;;21.73;13.20;;;;;;;2.88;74.63;100197.63;4970998;28;96723;-73
2023/12/09 07:01:24;;;;;;;22.53;12.97;;;;;;;2.82;74.59;100180.41;4965766;28;96845;-73
2023/12/09 07:03:50;;;;;;;23.57;12.87;;;;;;;2.94;74.28;100195.91;4936781;28;101542;-73
2023/12/09 07:06:20;;;;;;;22.13;13.17;;;;;;;3.06;74.26;100196.72;4952945;28;101006;-73
2023/12/09 07:08:45;;;;;;;23.60;13.50;;;;;;;2.93;74.20;100180.34;4953699;28;96829;-73
2023/12/09 07:11:11;;;;;;;18.70;12.00;;;;;;;3.04;73.94;100204.50;4950916;28;97326;-73
2023/12/09 07:13:38;;;;;;;20.53;11.93;;;;;;;2.91;73.75;100198.50;4937282;28;101265;-73
2023/12/09 07:16:06;;;;;;;20.17;13.27;;;;;;;3.04;74.19;100201.03;4969420;28;97406;-73
2023/12/09 07:18:31;;;;;;;25.43;15.20;;;;;;;3.07;73.69;100199.28;4936687;28;97237;-73
2023/12/09 07:20:57;;;;;;;21.97;14.53;;;;;;;3.20;73.58;100191.41;4970242;28;96875;-73
2023/12/09 07:23:22;;;;;;;21.77;13.57;;;;;;;3.04;73.75;100196.72;4965947;28;101123;-73
2023/12/09 07:25:48;;;;;;;22.87;15.27;;;;;;;2.89;73.97;100186.41;4969283;28;97848;-73
2023/12/09 07:28:14;;;;;;;22.83;13.93;;;;;;;3.02;73.88;100189.81;4953991;28;96855;-73
2023/12/09 07:30:39;;;;;;;21.03;14.27;;;;;;;3.15;73.59;100194.06;4937201;28;97114;-73
2023/12/09 07:33:05;;;;;;;22.93;13.40;;;;;;;3.14;73.62;100193.22;4964582;28;100630;-74
2023/12/09 07:35:30;;;;;;;21.43;12.20;;;;;;;3.25;73.37;100192.25;4950149;28;100637;-74
2023/12/09 07:37:56;;;;;;;25.63;13.73;;;;;;;3.24;73.02;100188.81;4968164;28;97253;-73
2023/12/09 07:40:21;;;;;;;22.77;13.23;;;;;;;3.10;73.32;100188.03;4954121;28;97304;-73
2023/12/09 07:42:47;;;;;;;22.20;14.00;;;;;;;3.13;73.09;100177.63;4951518;28;98082;-73
2023/12/09 07:45:12;;;;;;;21.00;13.50;;;;;;;3.36;72.51;100187.88;4969618;28;101389;-73
2023/12/09 07:47:38;;;;;;;19.87;14.13;;;;;;;3.34;73.10;100187.00;4970001;28;96741;-74
2023/12/09 07:50:04;;;;;;;24.13;14.60;;;;;;;3.46;72.44;100189.53;4969344;28;97008;-74
2023/12/09 07:52:29;;;;;;;28.17;16.40;;;;;;;3.46;72.32;100186.94;4952251;28;97538;-74
2023/12/09 07:54:55;;;;;;;21.83;15.10;;;;;;;3.43;72.67;100179.16;4956531;28;101241;-74
2023/12/09 07:57:21;;;;;;;21.93;14.07;;;;;;;3.47;72.64;100190.41;4964170;28;98535;-74
2023/12/09 07:59:47;;;;;;;22.87;14.67;;;;;;;3.51;72.66;100186.91;4975816;28;98431;-73
2023/12/09 08:02:13;;;;;;;22.23;14.27;;;;;;;3.45;72.39;100184.34;4976311;28;101803;-74
2023/12/09 08:04:39;;;;;;;22.13;14.77;;;;;;;3.46;72.46;100184.34;4961999;28;100870;-74
2023/12/09 08:07:04;;;;;;;24.73;14.87;;;;;;;3.59;72.21;100183.38;4970249;28;97002;-74
2023/12/09 08:09:30;;;;;;;23.73;15.20;;;;;;;3.58;72.25;100183.41;4981673;28;96931;-75
2023/12/09 08:11:55;;;;;;;24.20;14.10;;;;;;;3.56;72.17;100186.00;4949328;28;100975;-76
2023/12/09 08:14:21;;;;;;;30.70;16.33;;;;;;;3.44;72.31;100180.03;4964930;28;101025;-78
2023/12/09 08:16:47;;;;;;;27.30;15.37;;;;;;;3.45;72.18;100180.00;4981616;28;97239;-75
2023/12/09 08:19:13;;;;;;;28.23;16.37;;;;;;;3.56;72.50;100180.81;4965541;28;96993;-74
2023/12/09 08:21:39;;;;;;;25.00;14.53;;;;;;;3.52;72.17;100186.00;4981638;28;97564;-75
2023/12/09 08:24:04;;;;;;;25.43;16.40;;;;;;;3.62;72.07;100175.56;4964263;28;101065;-76
2023/12/09 08:26:30;;;;;;;32.50;16.33;;;;;;;3.63;71.81;100179.00;4975989;28;97272;-75
2023/12/09 08:28:55;;;;;;;32.47;17.10;;;;;;;3.70;72.09;100179.84;4967620;28;97522;-78
2023/12/09 08:31:21;;;;;;;30.53;17.27;;;;;;;3.63;71.84;100164.28;4981997;28;100597;-78
2023/12/09 08:33:47;;;;;;;32.90;17.97;;;;;;;3.59;72.15;100165.19;4950360;28;101171;-76
2023/12/09 08:36:12;;;;;;;27.77;16.77;;;;;;;3.68;71.66;100164.25;4963149;28;96841;-75
2023/12/09 08:38:38;;;;;;;28.43;16.37;;;;;;;3.88;71.46;100174.47;4978209;28;96850;-74
2023/12/09 08:41:03;;;;;;;32.23;17.13;;;;;;;3.87;71.72;100167.56;4950583;28;101516;-72
2023/12/09 08:43:29;;;;;;;28.23;17.27;;;;;;;3.75;71.53;100158.16;4946763;28;101343;-73
2023/12/09 08:45:54;;;;;;;27.03;17.00;;;;;;;3.89;71.60;100168.41;4958150;28;97315;-73
2023/12/09 08:48:20;;;;;;;26.20;16.00;;;;;;;3.95;71.39;100168.34;4967182;28;97062;-73
2023/12/09 08:50:45;;;;;;;34.23;16.67;;;;;;;3.90;71.02;100169.25;4966392;28;97988;-73
2023/12/09 08:53:11;;;;;;;27.80;17.43;;;;;;;3.77;71.67;100166.78;4951443;28;101315;-73
2023/12/09 08:55:37;;;;;;;32.80;17.80;;;;;;;3.88;71.25;100158.91;4971142;28;96836;-73
2023/12/09 08:58:03;;;;;;;28.67;17.70;;;;;;;3.97;71.17;100165.75;4960532;28;96733;-73
2023/12/09 09:00:28;;;;;;;33.47;18.20;;;;;;;3.91;71.21;100173.59;4984702;28;98084;-73
2023/12/09 09:02:55;;;;;;;31.77;18.30;;;;;;;3.93;71.33;100177.91;4958699;28;101008;-73
2023/12/09 09:05:22;;;;;;;30.13;17.47;;;;;;;4.08;70.87;100180.34;4981792;28;97149;-73
2023/12/09 09:07:47;;;;;;;31.33;17.23;;;;;;;4.13;70.92;100176.84;4974977;28;96928;-74
2023/12/09 09:10:14;;;;;;;32.07;17.40;;;;;;;4.03;70.75;100155.28;4987101;28;97526;-70
2023/12/09 09:12:39;;;;;;;29.93;18.10;;;;;;;4.11;70.70;100168.22;4989827;28;97327;-69
2023/12/09 09:15:06;;;;;;;27.90;17.03;;;;;;;4.14;70.26;100178.56;4974501;28;96808;-70
2023/12/09 09:17:32;;;;;;;28.13;17.10;;;;;;;4.03;70.45;100169.13;4972742;28;96972;-69
2023/12/09 09:19:58;;;;;;;31.60;18.47;;;;;;;4.08;70.25;100174.31;4956635;28;97697;-71
2023/12/09 09:22:23;;;;;;;35.47;18.13;;;;;;;4.05;70.29;100163.94;4974395;28;97712;-71
2023/12/09 09:24:49;;;;;;;31.27;17.47;;;;;;;4.01;70.23;100176.06;4945104;28;96757;-70
2023/12/09 09:27:14;;;;;;;32.63;17.33;;;;;;;3.94;70.27;100168.38;4973691;28;96916;-70
2023/12/09 09:29:40;;;;;;;27.97;15.43;;;;;;;3.86;70.09;100164.09;4978414;28;101373;-70
2023/12/09 09:32:07;;;;;;;28.23;15.83;;;;;;;3.96;70.46;100167.50;4972231;28;97467;-70
2023/12/09 09:34:33;;;;;;;29.53;15.03;;;;;;;3.91;70.49;100155.41;4964258;28;96928;-71
2023/12/09 09:36:59;;;;;;;30.23;15.80;;;;;;;3.90;70.25;100154.56;4952590;28;97282;-70
2023/12/09 09:39:24;;;;;;;29.80;16.20;;;;;;;3.93;70.44;100162.31;4974438;28;97459;-70
2023/12/09 09:42:14;;;;;;;29.60;15.87;;;;;;;3.95;70.90;100157.97;4956917;28;100759;-71
2023/12/09 09:44:47;;;;;;;27.67;15.47;;;;;;;3.92;70.63;100152.78;4963341;28;96816;-70
2023/12/09 09:47:13;;;;;;;29.67;15.27;;;;;;;3.81;70.80;100144.22;4983825;28;96959;-71
2023/12/09 09:49:39;;;;;;;28.97;17.03;;;;;;;3.98;70.91;100149.28;4963922;28;97317;-72
2023/12/09 09:52:08;;;;;;;28.70;17.63;;;;;;;4.00;70.86;100160.53;4988454;28;97631;-70
2023/12/09 09:54:34;;;;;;;31.03;16.10;;;;;;;3.90;70.27;100140.69;4983885;28;96872;-70
2023/12/09 09:57:03;;;;;;;32.80;17.03;;;;;;;3.98;70.73;100144.94;4970182;28;97327;-71
2023/12/09 09:59:29;;;;;;;32.63;15.93;;;;;;;3.96;70.88;100131.13;4962593;28;101149;-74
2023/12/09 10:01:55;;;;;;;29.13;16.93;;;;;;;4.05;70.92;100137.97;4972284;28;101320;-73
2023/12/09 10:04:20;;;;;;;24.97;14.67;;;;;;;4.07;70.57;100138.78;4945904;28;97226;-73
2023/12/09 10:06:46;;;;;;;26.63;15.97;;;;;;;4.01;70.69;100124.13;4983315;28;97217;-73
2023/12/09 10:09:12;;;;;;;29.33;16.50;;;;;;;4.07;70.38;100131.88;4956813;28;98063;-74
2023/12/09 10:11:37;;;;;;;27.03;15.37;;;;;;;4.18;70.65;100129.16;4989119;28;101054;-73
2023/12/09 10:14:04;;;;;;;27.80;15.83;;;;;;;4.18;70.38;100117.91;4955551;28;96919;-73
2023/12/09 10:16:29;;;;;;;28.50;15.43;;;;;;;4.19;70.24;100114.41;4956747;28;97744;-73
2023/12/09 10:18:56;;;;;;;24.83;14.43;;;;;;;4.03;70.10;100096.41;4953352;28;101412;-73
2023/12/09 10:21:22;;;;;;;25.13;16.17;;;;;;;3.99;70.57;100110.31;4983012;28;98006;-73
2023/12/09 10:23:47;;;;;;;27.47;15.30;;;;;;;4.02;70.57;100112.88;4992240;28;98269;-73
2023/12/09 10:26:14;;;;;;;22.73;13.97;;;;;;;3.96;70.58;100107.75;4975075;28;97263;-73
2023/12/09 10:28:40;;;;;;;26.80;16.33;;;;;;;4.01;70.65;100103.34;4967435;28;101206;-73
2023/12/09 10:31:07;;;;;;;25.23;15.10;;;;;;;4.13;70.33;100093.69;4973287;28;99212;-73
2023/12/09 10:33:34;;;;;;;26.03;14.67;;;;;;;4.12;70.50;100092.00;4967742;28;97229;-73
2023/12/09 10:36:00;;;;;;;27.40;15.67;;;;;;;4.23;70.84;100090.13;4958696;28;96876;-75
2023/12/09 10:38:26;;;;;;;24.90;16.03;;;;;;;4.32;69.84;100087.41;4941917;28;101069;-75
2023/12/09 10:40:53;;;;;;;28.70;15.60;;;;;;;4.15;70.06;100078.97;4977922;28;97147;-78
2023/12/09 10:43:20;;;;;;;28.27;15.43;;;;;;;4.19;70.27;100085.84;4948392;28;96746;-75
2023/12/09 10:45:45;;;;;;;28.43;17.10;;;;;;;4.26;70.36;100090.09;4980329;28;97103;-76
2023/12/09 10:48:11;;;;;;;27.70;17.60;;;;;;;4.21;70.10;100089.28;4953016;28;100744;-75
2023/12/09 10:50:40;;;;;;;27.23;15.53;;;;;;;4.22;70.05;100094.47;4960699;28;101009;-81
2023/12/09 10:53:05;;;;;;;25.47;15.13;;;;;;;4.17;69.86;100091.06;4982530;28;96759;-74
2023/12/09 10:55:31;;;;;;;30.00;15.13;;;;;;;4.03;70.17;100067.84;4970657;28;97223;-76
2023/12/09 10:58:00;;;;;;;28.43;15.97;;;;;;;4.02;70.05;100076.50;4942919;28;101519;-75
2023/12/09 11:00:26;;;;;;;31.37;14.90;;;;;;;4.13;70.56;100078.09;4952424;28;101478;-77
2023/12/09 11:02:55;;;;;;;27.90;15.47;;;;;;;4.13;70.46;100072.91;4963685;28;96785;-76
2023/12/09 11:05:21;;;;;;;24.83;13.97;;;;;;;4.20;70.42;100077.19;4960715;28;96805;-71
2023/12/09 11:07:47;;;;;;;26.10;16.10;;;;;;;4.22;70.43;100075.44;4947004;28;101047;-74
2023/12/09 11:10:13;;;;;;;27.33;15.40;;;;;;;4.15;70.27;100074.63;4939233;28;101036;-74